sensor_id;sensor_type;location;lat;lon;timestamp;temperature;humidity
19588;DHT22;9940;47.252;8.696;2023-03-01T00:01:25;3.00;88.10
19588;DHT22;9940;47.252;8.696;2023-03-01T00:03:52;3.00;87.40
19588;DHT22;9940;47.252;8.696;2023-03-01T00:06:19;3.10;87.50
19588;DHT22;9940;47.252;8.696;2023-03-01T00:08:44;3.10;87.70
19588;DHT22;9940;47.252;8.696;2023-03-01T00:13:36;3.00;87.60
19588;DHT22;9940;47.252;8.696;2023-03-01T00:16:06;3.10;87.70
19588;DHT22;9940;47.252;8.696;2023-03-01T00:18:32;3.10;87.70
19588;DHT22;9940;47.252;8.696;2023-03-01T00:20:59;3.10;87.80
19588;DHT22;9940;47.252;8.696;2023-03-01T00:23:25;3.00;87.90
19588;DHT22;9940;47.252;8.696;2023-03-01T00:25:51;3.10;87.90
19588;DHT22;9940;47.252;8.696;2023-03-01T00:28:17;3.00;88.00
19588;DHT22;9940;47.252;8.696;2023-03-01T00:30:42;3.00;88.10
19588;DHT22;9940;47.252;8.696;2023-03-01T00:33:08;3.00;88.20
19588;DHT22;9940;47.252;8.696;2023-03-01T00:35:35;3.00;88.30
19588;DHT22;9940;47.252;8.696;2023-03-01T00:38:01;3.00;88.30
19588;DHT22;9940;47.252;8.696;2023-03-01T00:40:28;3.00;88.40
19588;DHT22;9940;47.252;8.696;2023-03-01T00:42:54;3.00;88.50
19588;DHT22;9940;47.252;8.696;2023-03-01T00:45:20;3.00;88.60
19588;DHT22;9940;47.252;8.696;2023-03-01T00:47:46;3.00;88.70
19588;DHT22;9940;47.252;8.696;2023-03-01T00:50:12;3.00;88.90
19588;DHT22;9940;47.252;8.696;2023-03-01T00:52:38;2.90;88.90
19588;DHT22;9940;47.252;8.696;2023-03-01T00:55:05;3.00;89.10
19588;DHT22;9940;47.252;8.696;2023-03-01T00:57:31;3.00;89.10
19588;DHT22;9940;47.252;8.696;2023-03-01T00:59:59;2.90;89.10
19588;DHT22;9940;47.252;8.696;2023-03-01T01:02:25;2.90;89.20
19588;DHT22;9940;47.252;8.696;2023-03-01T01:04:50;3.00;89.30
19588;DHT22;9940;47.252;8.696;2023-03-01T01:07:16;3.00;89.40
19588;DHT22;9940;47.252;8.696;2023-03-01T01:09:52;3.00;89.40
19588;DHT22;9940;47.252;8.696;2023-03-01T01:12:20;3.00;89.30
19588;DHT22;9940;47.252;8.696;2023-03-01T01:14:46;3.00;89.30
19588;DHT22;9940;47.252;8.696;2023-03-01T01:17:11;3.00;89.40
19588;DHT22;9940;47.252;8.696;2023-03-01T01:19:39;3.00;89.40
19588;DHT22;9940;47.252;8.696;2023-03-01T01:22:05;3.00;89.40
19588;DHT22;9940;47.252;8.696;2023-03-01T01:24:30;3.00;89.60
19588;DHT22;9940;47.252;8.696;2023-03-01T01:26:58;3.00;89.70
19588;DHT22;9940;47.252;8.696;2023-03-01T01:29:24;2.90;89.70
19588;DHT22;9940;47.252;8.696;2023-03-01T01:31:49;2.90;89.80
19588;DHT22;9940;47.252;8.696;2023-03-01T01:34:18;2.90;90.00
19588;DHT22;9940;47.252;8.696;2023-03-01T01:36:48;2.90;90.00
19588;DHT22;9940;47.252;8.696;2023-03-01T01:39:15;2.90;90.00
19588;DHT22;9940;47.252;8.696;2023-03-01T01:41:42;2.90;90.00
19588;DHT22;9940;47.252;8.696;2023-03-01T01:44:21;3.00;90.10
19588;DHT22;9940;47.252;8.696;2023-03-01T01:49:54;3.00;90.10
19588;DHT22;9940;47.252;8.696;2023-03-01T01:52:26;3.00;90.10
19588;DHT22;9940;47.252;8.696;2023-03-01T01:55:17;3.00;90.00
19588;DHT22;9940;47.252;8.696;2023-03-01T01:57:54;3.00;90.00
19588;DHT22;9940;47.252;8.696;2023-03-01T02:00:23;3.00;90.00
19588;DHT22;9940;47.252;8.696;2023-03-01T02:02:54;3.00;90.00
19588;DHT22;9940;47.252;8.696;2023-03-01T02:08:09;3.00;90.10
19588;DHT22;9940;47.252;8.696;2023-03-01T02:10:37;3.00;90.10
19588;DHT22;9940;47.252;8.696;2023-03-01T02:13:06;2.90;90.10
19588;DHT22;9940;47.252;8.696;2023-03-01T02:15:36;3.00;90.20
19588;DHT22;9940;47.252;8.696;2023-03-01T02:18:04;3.00;90.30
19588;DHT22;9940;47.252;8.696;2023-03-01T02:23:01;2.90;90.30
19588;DHT22;9940;47.252;8.696;2023-03-01T02:25:39;2.90;90.40
19588;DHT22;9940;47.252;8.696;2023-03-01T02:30:45;3.00;90.80
19588;DHT22;9940;47.252;8.696;2023-03-01T02:33:31;3.00;90.50
19588;DHT22;9940;47.252;8.696;2023-03-01T02:36:00;3.00;90.50
19588;DHT22;9940;47.252;8.696;2023-03-01T02:38:28;3.00;90.50
19588;DHT22;9940;47.252;8.696;2023-03-01T02:40:54;3.00;90.50
19588;DHT22;9940;47.252;8.696;2023-03-01T02:43:25;3.00;90.60
19588;DHT22;9940;47.252;8.696;2023-03-01T02:45:56;3.00;90.60
19588;DHT22;9940;47.252;8.696;2023-03-01T02:48:22;3.00;90.70
19588;DHT22;9940;47.252;8.696;2023-03-01T02:56:36;3.00;90.80
19588;DHT22;9940;47.252;8.696;2023-03-01T02:59:06;3.00;90.80
19588;DHT22;9940;47.252;8.696;2023-03-01T03:01:36;3.00;90.80
19588;DHT22;9940;47.252;8.696;2023-03-01T03:04:08;2.90;90.90
19588;DHT22;9940;47.252;8.696;2023-03-01T03:06:35;2.90;91.00
19588;DHT22;9940;47.252;8.696;2023-03-01T03:09:01;2.90;91.00
19588;DHT22;9940;47.252;8.696;2023-03-01T03:11:29;2.90;91.10
19588;DHT22;9940;47.252;8.696;2023-03-01T03:13:56;2.90;91.10
19588;DHT22;9940;47.252;8.696;2023-03-01T03:16:22;2.90;91.20
19588;DHT22;9940;47.252;8.696;2023-03-01T03:18:48;2.90;91.20
19588;DHT22;9940;47.252;8.696;2023-03-01T03:21:16;2.90;91.30
19588;DHT22;9940;47.252;8.696;2023-03-01T03:23:43;2.90;91.30
19588;DHT22;9940;47.252;8.696;2023-03-01T03:26:08;2.90;91.40
19588;DHT22;9940;47.252;8.696;2023-03-01T03:28:40;3.00;91.50
19588;DHT22;9940;47.252;8.696;2023-03-01T03:31:08;3.00;91.50
19588;DHT22;9940;47.252;8.696;2023-03-01T03:33:34;2.90;91.90
19588;DHT22;9940;47.252;8.696;2023-03-01T03:36:02;2.90;91.60
19588;DHT22;9940;47.252;8.696;2023-03-01T03:38:30;2.90;91.70
19588;DHT22;9940;47.252;8.696;2023-03-01T03:41:01;2.90;91.80
19588;DHT22;9940;47.252;8.696;2023-03-01T03:43:29;2.90;91.80
19588;DHT22;9940;47.252;8.696;2023-03-01T03:45:55;2.90;91.90
19588;DHT22;9940;47.252;8.696;2023-03-01T03:48:25;2.90;91.90
19588;DHT22;9940;47.252;8.696;2023-03-01T03:50:53;2.90;91.90
19588;DHT22;9940;47.252;8.696;2023-03-01T03:53:21;2.90;91.90
19588;DHT22;9940;47.252;8.696;2023-03-01T03:55:47;2.90;92.00
19588;DHT22;9940;47.252;8.696;2023-03-01T03:58:18;2.90;92.00
19588;DHT22;9940;47.252;8.696;2023-03-01T04:00:46;2.90;92.10
19588;DHT22;9940;47.252;8.696;2023-03-01T04:03:16;2.90;92.10
19588;DHT22;9940;47.252;8.696;2023-03-01T04:05:44;2.90;92.10
19588;DHT22;9940;47.252;8.696;2023-03-01T04:08:15;2.90;92.20
19588;DHT22;9940;47.252;8.696;2023-03-01T04:10:46;2.90;92.10
19588;DHT22;9940;47.252;8.696;2023-03-01T04:13:18;2.90;92.20
19588;DHT22;9940;47.252;8.696;2023-03-01T04:15:46;2.90;92.20
19588;DHT22;9940;47.252;8.696;2023-03-01T04:18:13;2.90;92.20
19588;DHT22;9940;47.252;8.696;2023-03-01T04:20:39;2.90;92.20
19588;DHT22;9940;47.252;8.696;2023-03-01T04:23:07;2.90;92.20
19588;DHT22;9940;47.252;8.696;2023-03-01T04:25:40;2.90;92.30
19588;DHT22;9940;47.252;8.696;2023-03-01T04:28:07;2.90;92.30
19588;DHT22;9940;47.252;8.696;2023-03-01T04:30:33;2.90;92.30
19588;DHT22;9940;47.252;8.696;2023-03-01T04:33:05;3.00;92.30
19588;DHT22;9940;47.252;8.696;2023-03-01T04:35:34;3.00;92.40
19588;DHT22;9940;47.252;8.696;2023-03-01T04:38:00;2.90;92.30
19588;DHT22;9940;47.252;8.696;2023-03-01T04:40:26;2.90;92.40
19588;DHT22;9940;47.252;8.696;2023-03-01T04:42:54;3.00;92.50
19588;DHT22;9940;47.252;8.696;2023-03-01T04:45:20;3.00;92.50
19588;DHT22;9940;47.252;8.696;2023-03-01T04:47:48;2.90;92.40
19588;DHT22;9940;47.252;8.696;2023-03-01T04:50:17;2.90;92.50
19588;DHT22;9940;47.252;8.696;2023-03-01T04:52:46;2.90;92.50
19588;DHT22;9940;47.252;8.696;2023-03-01T04:55:13;2.90;92.50
19588;DHT22;9940;47.252;8.696;2023-03-01T04:57:39;2.90;92.50
19588;DHT22;9940;47.252;8.696;2023-03-01T05:00:07;2.90;92.50
19588;DHT22;9940;47.252;8.696;2023-03-01T05:02:55;2.90;92.50
19588;DHT22;9940;47.252;8.696;2023-03-01T05:05:36;2.90;92.60
19588;DHT22;9940;47.252;8.696;2023-03-01T05:08:08;2.90;92.50
19588;DHT22;9940;47.252;8.696;2023-03-01T05:10:48;2.90;92.40
19588;DHT22;9940;47.252;8.696;2023-03-01T05:13:17;2.90;92.40
19588;DHT22;9940;47.252;8.696;2023-03-01T05:15:57;2.90;92.40
19588;DHT22;9940;47.252;8.696;2023-03-01T05:18:26;2.90;92.50
19588;DHT22;9940;47.252;8.696;2023-03-01T05:21:01;2.90;92.50
19588;DHT22;9940;47.252;8.696;2023-03-01T05:23:33;2.90;92.50
19588;DHT22;9940;47.252;8.696;2023-03-01T05:25:59;2.90;92.50
19588;DHT22;9940;47.252;8.696;2023-03-01T05:28:26;3.00;92.60
19588;DHT22;9940;47.252;8.696;2023-03-01T05:30:53;2.90;92.60
19588;DHT22;9940;47.252;8.696;2023-03-01T05:33:19;2.90;92.60
19588;DHT22;9940;47.252;8.696;2023-03-01T05:35:47;3.00;92.70
19588;DHT22;9940;47.252;8.696;2023-03-01T05:38:14;3.00;92.70
19588;DHT22;9940;47.252;8.696;2023-03-01T05:40:41;3.00;92.70
19588;DHT22;9940;47.252;8.696;2023-03-01T05:43:07;3.00;92.70
19588;DHT22;9940;47.252;8.696;2023-03-01T05:45:35;3.00;92.70
19588;DHT22;9940;47.252;8.696;2023-03-01T05:48:01;3.00;92.70
19588;DHT22;9940;47.252;8.696;2023-03-01T05:50:33;3.00;92.70
19588;DHT22;9940;47.252;8.696;2023-03-01T05:55:29;3.00;92.70
19588;DHT22;9940;47.252;8.696;2023-03-01T05:57:58;3.00;92.60
19588;DHT22;9940;47.252;8.696;2023-03-01T06:00:24;3.00;92.60
19588;DHT22;9940;47.252;8.696;2023-03-01T06:02:50;3.00;92.60
19588;DHT22;9940;47.252;8.696;2023-03-01T06:05:17;3.10;92.60
19588;DHT22;9940;47.252;8.696;2023-03-01T06:07:45;3.10;92.60
19588;DHT22;9940;47.252;8.696;2023-03-01T06:10:15;3.10;92.60
19588;DHT22;9940;47.252;8.696;2023-03-01T06:12:41;3.10;92.50
19588;DHT22;9940;47.252;8.696;2023-03-01T06:15:11;3.10;92.50
19588;DHT22;9940;47.252;8.696;2023-03-01T06:17:38;3.10;92.50
19588;DHT22;9940;47.252;8.696;2023-03-01T06:22:37;3.10;92.40
19588;DHT22;9940;47.252;8.696;2023-03-01T06:25:04;3.10;92.40
19588;DHT22;9940;47.252;8.696;2023-03-01T06:27:30;3.10;92.40
19588;DHT22;9940;47.252;8.696;2023-03-01T06:29:55;3.20;92.30
19588;DHT22;9940;47.252;8.696;2023-03-01T06:32:23;3.10;92.30
19588;DHT22;9940;47.252;8.696;2023-03-01T06:34:50;3.10;92.30
19588;DHT22;9940;47.252;8.696;2023-03-01T06:37:15;3.10;92.30
19588;DHT22;9940;47.252;8.696;2023-03-01T06:39:41;3.10;92.20
19588;DHT22;9940;47.252;8.696;2023-03-01T06:42:10;3.10;92.50
19588;DHT22;9940;47.252;8.696;2023-03-01T06:44:36;3.10;92.10
19588;DHT22;9940;47.252;8.696;2023-03-01T06:47:02;3.10;92.10
19588;DHT22;9940;47.252;8.696;2023-03-01T06:49:28;3.10;92.00
19588;DHT22;9940;47.252;8.696;2023-03-01T06:51:54;3.20;92.00
19588;DHT22;9940;47.252;8.696;2023-03-01T06:54:22;3.20;91.90
19588;DHT22;9940;47.252;8.696;2023-03-01T06:56:51;3.20;91.80
19588;DHT22;9940;47.252;8.696;2023-03-01T06:59:17;3.20;91.70
19588;DHT22;9940;47.252;8.696;2023-03-01T07:01:43;3.20;91.60
19588;DHT22;9940;47.252;8.696;2023-03-01T07:04:09;3.30;91.50
19588;DHT22;9940;47.252;8.696;2023-03-01T07:06:35;3.30;91.50
19588;DHT22;9940;47.252;8.696;2023-03-01T07:09:01;3.30;91.40
19588;DHT22;9940;47.252;8.696;2023-03-01T07:11:26;3.30;91.30
19588;DHT22;9940;47.252;8.696;2023-03-01T07:13:54;3.30;91.30
19588;DHT22;9940;47.252;8.696;2023-03-01T07:16:21;3.30;91.30
19588;DHT22;9940;47.252;8.696;2023-03-01T07:18:46;3.30;91.20
19588;DHT22;9940;47.252;8.696;2023-03-01T07:21:13;3.30;91.20
19588;DHT22;9940;47.252;8.696;2023-03-01T07:23:42;3.40;91.20
19588;DHT22;9940;47.252;8.696;2023-03-01T07:26:10;3.30;91.10
19588;DHT22;9940;47.252;8.696;2023-03-01T07:28:35;3.30;91.10
19588;DHT22;9940;47.252;8.696;2023-03-01T07:31:05;3.40;91.00
19588;DHT22;9940;47.252;8.696;2023-03-01T07:33:30;3.40;91.00
19588;DHT22;9940;47.252;8.696;2023-03-01T07:35:58;3.40;91.00
19588;DHT22;9940;47.252;8.696;2023-03-01T07:38:24;3.40;90.90
19588;DHT22;9940;47.252;8.696;2023-03-01T07:40:49;3.40;90.80
19588;DHT22;9940;47.252;8.696;2023-03-01T07:43:15;3.40;90.80
19588;DHT22;9940;47.252;8.696;2023-03-01T07:45:41;3.40;90.80
19588;DHT22;9940;47.252;8.696;2023-03-01T07:48:09;3.40;90.80
19588;DHT22;9940;47.252;8.696;2023-03-01T07:50:37;3.50;90.70
19588;DHT22;9940;47.252;8.696;2023-03-01T07:53:03;3.50;90.90
19588;DHT22;9940;47.252;8.696;2023-03-01T07:55:31;3.50;90.40
19588;DHT22;9940;47.252;8.696;2023-03-01T07:57:56;3.50;90.40
19588;DHT22;9940;47.252;8.696;2023-03-01T08:00:22;3.50;90.20
19588;DHT22;9940;47.252;8.696;2023-03-01T08:02:50;3.50;90.20
19588;DHT22;9940;47.252;8.696;2023-03-01T08:05:16;3.50;90.20
19588;DHT22;9940;47.252;8.696;2023-03-01T08:07:42;3.50;90.10
19588;DHT22;9940;47.252;8.696;2023-03-01T08:10:11;3.50;90.00
19588;DHT22;9940;47.252;8.696;2023-03-01T08:12:36;3.60;90.00
19588;DHT22;9940;47.252;8.696;2023-03-01T08:15:04;3.60;89.90
19588;DHT22;9940;47.252;8.696;2023-03-01T08:17:30;3.60;89.60
19588;DHT22;9940;47.252;8.696;2023-03-01T08:19:56;3.70;89.50
19588;DHT22;9940;47.252;8.696;2023-03-01T08:22:21;3.70;89.30
19588;DHT22;9940;47.252;8.696;2023-03-01T08:24:47;3.70;89.30
19588;DHT22;9940;47.252;8.696;2023-03-01T08:27:15;3.70;90.00
19588;DHT22;9940;47.252;8.696;2023-03-01T08:29:41;3.70;89.30
19588;DHT22;9940;47.252;8.696;2023-03-01T08:32:07;3.70;89.30
19588;DHT22;9940;47.252;8.696;2023-03-01T08:34:36;3.70;89.30
19588;DHT22;9940;47.252;8.696;2023-03-01T08:37:02;3.70;89.10
19588;DHT22;9940;47.252;8.696;2023-03-01T08:39:30;3.80;89.00
19588;DHT22;9940;47.252;8.696;2023-03-01T08:41:56;3.80;88.80
19588;DHT22;9940;47.252;8.696;2023-03-01T08:44:22;3.90;88.70
19588;DHT22;9940;47.252;8.696;2023-03-01T08:46:48;3.90;88.60
19588;DHT22;9940;47.252;8.696;2023-03-01T08:49:17;3.90;88.50
19588;DHT22;9940;47.252;8.696;2023-03-01T08:51:46;3.90;88.30
19588;DHT22;9940;47.252;8.696;2023-03-01T08:54:18;3.90;88.20
19588;DHT22;9940;47.252;8.696;2023-03-01T08:56:44;4.00;88.20
19588;DHT22;9940;47.252;8.696;2023-03-01T08:59:11;4.00;88.00
19588;DHT22;9940;47.252;8.696;2023-03-01T09:01:36;4.00;87.90
19588;DHT22;9940;47.252;8.696;2023-03-01T09:04:02;4.00;87.80
19588;DHT22;9940;47.252;8.696;2023-03-01T09:06:32;4.00;87.70
19588;DHT22;9940;47.252;8.696;2023-03-01T09:08:58;4.00;87.50
19588;DHT22;9940;47.252;8.696;2023-03-01T09:11:24;4.10;87.30
19588;DHT22;9940;47.252;8.696;2023-03-01T09:13:50;4.10;87.00
19588;DHT22;9940;47.252;8.696;2023-03-01T09:16:20;4.20;86.80
19588;DHT22;9940;47.252;8.696;2023-03-01T09:18:53;4.20;86.40
19588;DHT22;9940;47.252;8.696;2023-03-01T09:21:20;4.30;86.20
19588;DHT22;9940;47.252;8.696;2023-03-01T09:23:47;4.30;86.00
19588;DHT22;9940;47.252;8.696;2023-03-01T09:26:16;4.40;85.80
19588;DHT22;9940;47.252;8.696;2023-03-01T09:28:45;4.40;85.60
19588;DHT22;9940;47.252;8.696;2023-03-01T09:31:14;4.40;85.40
19588;DHT22;9940;47.252;8.696;2023-03-01T09:33:41;4.50;85.20
19588;DHT22;9940;47.252;8.696;2023-03-01T09:36:12;4.50;85.00
19588;DHT22;9940;47.252;8.696;2023-03-01T09:38:40;4.60;84.80
19588;DHT22;9940;47.252;8.696;2023-03-01T09:44:15;4.70;84.20
19588;DHT22;9940;47.252;8.696;2023-03-01T09:46:43;4.70;83.80
19588;DHT22;9940;47.252;8.696;2023-03-01T09:49:14;4.70;83.60
19588;DHT22;9940;47.252;8.696;2023-03-01T09:54:24;4.80;83.20
19588;DHT22;9940;47.252;8.696;2023-03-01T10:05:40;4.90;82.00
19588;DHT22;9940;47.252;8.696;2023-03-01T10:11:26;4.90;81.60
19588;DHT22;9940;47.252;8.696;2023-03-01T10:16:40;4.90;81.30
19588;DHT22;9940;47.252;8.696;2023-03-01T10:19:12;4.90;81.10
19588;DHT22;9940;47.252;8.696;2023-03-01T10:21:41;5.00;81.00
19588;DHT22;9940;47.252;8.696;2023-03-01T10:24:14;5.00;80.80
19588;DHT22;9940;47.252;8.696;2023-03-01T10:27:08;5.00;80.60
19588;DHT22;9940;47.252;8.696;2023-03-01T10:32:48;5.10;80.10
19588;DHT22;9940;47.252;8.696;2023-03-01T10:35:24;5.10;80.60
19588;DHT22;9940;47.252;8.696;2023-03-01T10:38:03;5.10;79.70
19588;DHT22;9940;47.252;8.696;2023-03-01T10:40:29;5.10;79.70
19588;DHT22;9940;47.252;8.696;2023-03-01T10:42:57;5.10;79.60
19588;DHT22;9940;47.252;8.696;2023-03-01T10:50:38;5.20;79.30
19588;DHT22;9940;47.252;8.696;2023-03-01T10:53:05;5.20;79.20
19588;DHT22;9940;47.252;8.696;2023-03-01T10:55:41;5.20;79.10
19588;DHT22;9940;47.252;8.696;2023-03-01T10:58:19;5.20;79.00
19588;DHT22;9940;47.252;8.696;2023-03-01T11:01:06;5.20;78.90
19588;DHT22;9940;47.252;8.696;2023-03-01T11:06:39;5.30;78.60
19588;DHT22;9940;47.252;8.696;2023-03-01T11:09:17;5.30;78.40
19588;DHT22;9940;47.252;8.696;2023-03-01T11:11:44;5.40;78.10
19588;DHT22;9940;47.252;8.696;2023-03-01T11:14:36;5.30;77.90
19588;DHT22;9940;47.252;8.696;2023-03-01T11:17:45;5.40;77.80
19588;DHT22;9940;47.252;8.696;2023-03-01T11:22:35;5.40;77.50
19588;DHT22;9940;47.252;8.696;2023-03-01T11:25:02;5.40;77.50
19588;DHT22;9940;47.252;8.696;2023-03-01T11:27:31;5.40;77.40
19588;DHT22;9940;47.252;8.696;2023-03-01T11:35:28;5.40;77.00
19588;DHT22;9940;47.252;8.696;2023-03-01T11:40:46;5.50;76.60
19588;DHT22;9940;47.252;8.696;2023-03-01T11:43:25;5.60;76.60
19588;DHT22;9940;47.252;8.696;2023-03-01T11:49:12;5.70;76.30
19588;DHT22;9940;47.252;8.696;2023-03-01T11:54:55;5.80;75.70
19588;DHT22;9940;47.252;8.696;2023-03-01T12:16:55;5.90;75.30
19588;DHT22;9940;47.252;8.696;2023-03-01T12:28:31;5.90;75.30
19588;DHT22;9940;47.252;8.696;2023-03-01T12:41:31;5.60;75.70
19588;DHT22;9940;47.252;8.696;2023-03-01T12:44:30;5.60;75.80
19588;DHT22;9940;47.252;8.696;2023-03-01T12:49:33;5.60;75.90
19588;DHT22;9940;47.252;8.696;2023-03-01T12:54:36;5.60;75.90
19588;DHT22;9940;47.252;8.696;2023-03-01T13:08:56;5.70;75.90
19588;DHT22;9940;47.252;8.696;2023-03-01T13:11:22;5.70;76.00
19588;DHT22;9940;47.252;8.696;2023-03-01T13:13:50;5.70;75.90
19588;DHT22;9940;47.252;8.696;2023-03-01T13:16:41;5.70;76.00
19588;DHT22;9940;47.252;8.696;2023-03-01T13:21:35;5.80;76.00
19588;DHT22;9940;47.252;8.696;2023-03-01T13:24:03;5.80;75.90
19588;DHT22;9940;47.252;8.696;2023-03-01T13:26:29;5.90;75.80
19588;DHT22;9940;47.252;8.696;2023-03-01T13:28:56;5.80;75.60
19588;DHT22;9940;47.252;8.696;2023-03-01T13:33:54;5.80;75.70
19588;DHT22;9940;47.252;8.696;2023-03-01T13:47:14;5.70;76.20
19588;DHT22;9940;47.252;8.696;2023-03-01T13:52:32;5.70;75.90
19588;DHT22;9940;47.252;8.696;2023-03-01T13:54:59;5.70;75.80
19588;DHT22;9940;47.252;8.696;2023-03-01T13:57:34;5.80;75.70
19588;DHT22;9940;47.252;8.696;2023-03-01T14:00:01;5.80;75.60
19588;DHT22;9940;47.252;8.696;2023-03-01T14:02:28;5.80;75.40
19588;DHT22;9940;47.252;8.696;2023-03-01T14:05:00;5.80;75.30
19588;DHT22;9940;47.252;8.696;2023-03-01T14:07:27;5.80;75.20
19588;DHT22;9940;47.252;8.696;2023-03-01T14:10:05;5.80;75.20
19588;DHT22;9940;47.252;8.696;2023-03-01T14:15:57;5.80;75.10
19588;DHT22;9940;47.252;8.696;2023-03-01T14:18:47;5.80;75.20
19588;DHT22;9940;47.252;8.696;2023-03-01T14:21:17;5.70;75.20
19588;DHT22;9940;47.252;8.696;2023-03-01T14:23:43;5.70;75.30
19588;DHT22;9940;47.252;8.696;2023-03-01T14:26:14;5.60;75.40
19588;DHT22;9940;47.252;8.696;2023-03-01T14:28:45;5.60;75.50
19588;DHT22;9940;47.252;8.696;2023-03-01T14:31:45;5.60;75.60
19588;DHT22;9940;47.252;8.696;2023-03-01T14:34:22;5.60;75.80
19588;DHT22;9940;47.252;8.696;2023-03-01T14:36:49;5.60;75.70
19588;DHT22;9940;47.252;8.696;2023-03-01T14:39:20;5.60;75.80
19588;DHT22;9940;47.252;8.696;2023-03-01T14:41:49;5.60;76.60
19588;DHT22;9940;47.252;8.696;2023-03-01T14:44:20;5.50;76.70
19588;DHT22;9940;47.252;8.696;2023-03-01T14:46:55;5.50;76.10
19588;DHT22;9940;47.252;8.696;2023-03-01T14:49:25;5.50;76.30
19588;DHT22;9940;47.252;8.696;2023-03-01T14:52:07;5.40;76.40
19588;DHT22;9940;47.252;8.696;2023-03-01T14:54:52;5.40;76.60
19588;DHT22;9940;47.252;8.696;2023-03-01T14:57:26;5.40;76.60
19588;DHT22;9940;47.252;8.696;2023-03-01T14:59:58;5.40;76.60
19588;DHT22;9940;47.252;8.696;2023-03-01T15:02:26;5.40;76.70
19588;DHT22;9940;47.252;8.696;2023-03-01T15:04:58;5.30;76.80
19588;DHT22;9940;47.252;8.696;2023-03-01T15:07:33;5.40;76.90
19588;DHT22;9940;47.252;8.696;2023-03-01T15:10:02;5.30;76.90
19588;DHT22;9940;47.252;8.696;2023-03-01T15:14:55;5.30;77.20
19588;DHT22;9940;47.252;8.696;2023-03-01T15:19:55;5.30;77.40
19588;DHT22;9940;47.252;8.696;2023-03-01T15:22:21;5.30;77.60
19588;DHT22;9940;47.252;8.696;2023-03-01T15:24:52;5.20;77.60
19588;DHT22;9940;47.252;8.696;2023-03-01T15:27:22;5.20;77.80
19588;DHT22;9940;47.252;8.696;2023-03-01T15:30:06;5.20;78.00
19588;DHT22;9940;47.252;8.696;2023-03-01T15:32:33;5.20;78.20
19588;DHT22;9940;47.252;8.696;2023-03-01T15:35:35;5.20;78.30
19588;DHT22;9940;47.252;8.696;2023-03-01T15:38:22;5.20;78.40
19588;DHT22;9940;47.252;8.696;2023-03-01T15:40:51;5.20;78.40
19588;DHT22;9940;47.252;8.696;2023-03-01T15:43:43;5.10;78.50
19588;DHT22;9940;47.252;8.696;2023-03-01T15:48:52;5.10;78.90
19588;DHT22;9940;47.252;8.696;2023-03-01T15:51:27;5.10;79.00
19588;DHT22;9940;47.252;8.696;2023-03-01T15:53:57;5.00;79.10
19588;DHT22;9940;47.252;8.696;2023-03-01T15:56:23;5.10;79.30
19588;DHT22;9940;47.252;8.696;2023-03-01T15:58:49;5.00;79.50
19588;DHT22;9940;47.252;8.696;2023-03-01T16:01:17;5.00;79.60
19588;DHT22;9940;47.252;8.696;2023-03-01T16:03:45;5.00;79.70
19588;DHT22;9940;47.252;8.696;2023-03-01T16:06:11;5.00;79.80
19588;DHT22;9940;47.252;8.696;2023-03-01T16:08:38;5.00;79.90
19588;DHT22;9940;47.252;8.696;2023-03-01T16:11:18;4.90;80.10
19588;DHT22;9940;47.252;8.696;2023-03-01T16:13:44;4.90;80.20
19588;DHT22;9940;47.252;8.696;2023-03-01T16:16:11;4.90;80.30
19588;DHT22;9940;47.252;8.696;2023-03-01T16:18:39;4.90;80.40
19588;DHT22;9940;47.252;8.696;2023-03-01T16:21:05;4.90;80.50
19588;DHT22;9940;47.252;8.696;2023-03-01T16:23:31;4.90;80.70
19588;DHT22;9940;47.252;8.696;2023-03-01T16:26:00;4.90;80.70
19588;DHT22;9940;47.252;8.696;2023-03-01T16:28:26;4.90;80.80
19588;DHT22;9940;47.252;8.696;2023-03-01T16:30:52;4.90;81.00
19588;DHT22;9940;47.252;8.696;2023-03-01T16:33:20;4.80;81.00
19588;DHT22;9940;47.252;8.696;2023-03-01T16:35:46;4.80;81.20
19588;DHT22;9940;47.252;8.696;2023-03-01T16:38:11;4.80;81.40
19588;DHT22;9940;47.252;8.696;2023-03-01T16:40:42;4.70;81.40
19588;DHT22;9940;47.252;8.696;2023-03-01T16:43:12;4.70;81.60
19588;DHT22;9940;47.252;8.696;2023-03-01T16:45:38;4.70;81.80
19588;DHT22;9940;47.252;8.696;2023-03-01T16:48:10;4.70;81.90
19588;DHT22;9940;47.252;8.696;2023-03-01T16:50:36;4.70;82.00
19588;DHT22;9940;47.252;8.696;2023-03-01T16:53:02;4.70;82.10
19588;DHT22;9940;47.252;8.696;2023-03-01T16:55:28;4.60;82.20
19588;DHT22;9940;47.252;8.696;2023-03-01T16:57:53;4.60;82.40
19588;DHT22;9940;47.252;8.696;2023-03-01T17:00:19;4.60;82.60
19588;DHT22;9940;47.252;8.696;2023-03-01T17:02:45;4.50;82.60
19588;DHT22;9940;47.252;8.696;2023-03-01T17:05:11;4.50;82.80
19588;DHT22;9940;47.252;8.696;2023-03-01T17:07:37;4.50;82.90
19588;DHT22;9940;47.252;8.696;2023-03-01T17:10:05;4.50;83.10
19588;DHT22;9940;47.252;8.696;2023-03-01T17:12:34;4.40;83.30
19588;DHT22;9940;47.252;8.696;2023-03-01T17:15:00;4.40;83.50
19588;DHT22;9940;47.252;8.696;2023-03-01T17:17:26;4.40;83.50
19588;DHT22;9940;47.252;8.696;2023-03-01T17:19:56;4.40;83.70
19588;DHT22;9940;47.252;8.696;2023-03-01T17:22:22;4.40;83.70
19588;DHT22;9940;47.252;8.696;2023-03-01T17:24:48;4.40;83.80
19588;DHT22;9940;47.252;8.696;2023-03-01T17:27:14;4.30;83.90
19588;DHT22;9940;47.252;8.696;2023-03-01T17:29:43;4.30;84.00
19588;DHT22;9940;47.252;8.696;2023-03-01T17:32:11;4.30;84.10
19588;DHT22;9940;47.252;8.696;2023-03-01T17:34:37;4.30;84.30
19588;DHT22;9940;47.252;8.696;2023-03-01T17:37:06;4.20;84.20
19588;DHT22;9940;47.252;8.696;2023-03-01T17:39:31;4.20;84.20
19588;DHT22;9940;47.252;8.696;2023-03-01T17:42:01;4.20;84.30
19588;DHT22;9940;47.252;8.696;2023-03-01T17:44:29;4.20;84.30
19588;DHT22;9940;47.252;8.696;2023-03-01T17:46:55;4.20;84.40
19588;DHT22;9940;47.252;8.696;2023-03-01T17:49:23;4.20;84.40
19588;DHT22;9940;47.252;8.696;2023-03-01T17:51:49;4.20;84.50
19588;DHT22;9940;47.252;8.696;2023-03-01T17:54:15;4.20;84.50
19588;DHT22;9940;47.252;8.696;2023-03-01T17:56:43;4.20;84.60
19588;DHT22;9940;47.252;8.696;2023-03-01T17:59:09;4.20;84.60
19588;DHT22;9940;47.252;8.696;2023-03-01T18:01:40;4.20;84.70
19588;DHT22;9940;47.252;8.696;2023-03-01T18:04:07;4.20;84.70
19588;DHT22;9940;47.252;8.696;2023-03-01T18:06:35;4.20;84.70
19588;DHT22;9940;47.252;8.696;2023-03-01T18:09:05;4.20;84.80
19588;DHT22;9940;47.252;8.696;2023-03-01T18:11:32;4.20;84.80
19588;DHT22;9940;47.252;8.696;2023-03-01T18:13:58;4.20;84.80
19588;DHT22;9940;47.252;8.696;2023-03-01T18:16:26;4.20;84.90
19588;DHT22;9940;47.252;8.696;2023-03-01T18:18:54;4.20;84.90
19588;DHT22;9940;47.252;8.696;2023-03-01T18:21:23;4.20;84.90
19588;DHT22;9940;47.252;8.696;2023-03-01T18:23:51;4.30;85.00
19588;DHT22;9940;47.252;8.696;2023-03-01T18:26:17;4.30;85.00
19588;DHT22;9940;47.252;8.696;2023-03-01T18:28:47;4.30;85.80
19588;DHT22;9940;47.252;8.696;2023-03-01T18:31:16;4.30;85.20
19588;DHT22;9940;47.252;8.696;2023-03-01T18:33:47;4.30;85.20
19588;DHT22;9940;47.252;8.696;2023-03-01T18:36:19;4.30;85.20
19588;DHT22;9940;47.252;8.696;2023-03-01T18:38:46;4.30;85.10
19588;DHT22;9940;47.252;8.696;2023-03-01T18:41:15;4.30;85.10
19588;DHT22;9940;47.252;8.696;2023-03-01T18:43:44;4.30;85.10
19588;DHT22;9940;47.252;8.696;2023-03-01T18:46:09;4.30;85.10
19588;DHT22;9940;47.252;8.696;2023-03-01T18:48:35;4.40;85.10
19588;DHT22;9940;47.252;8.696;2023-03-01T18:51:28;4.40;85.10
19588;DHT22;9940;47.252;8.696;2023-03-01T18:53:57;4.40;85.20